createdAt,value
2017-06-30T00:00:00.659Z,0
2017-06-30T00:01:01.384Z,0
2017-06-30T00:02:02.110Z,0
2017-06-30T00:03:02.830Z,0
2017-06-30T00:04:03.558Z,0
2017-06-30T00:05:04.533Z,0
2017-06-30T00:06:05.254Z,0
2017-06-30T00:07:05.980Z,0
2017-06-30T00:08:06.704Z,0
2017-06-30T00:09:07.430Z,0
2017-06-30T00:10:08.404Z,0
2017-06-30T00:11:09.131Z,0
2017-06-30T00:12:09.851Z,0
2017-06-30T00:13:10.576Z,0
2017-06-30T00:14:11.300Z,0
2017-06-30T00:15:12.277Z,0
2017-06-30T00:16:13.001Z,0
2017-06-30T00:17:13.725Z,0
2017-06-30T00:18:14.448Z,0
2017-06-30T00:19:15.170Z,0
2017-06-30T00:20:16.147Z,0
2017-06-30T00:21:16.872Z,0
2017-06-30T00:22:17.595Z,0
2017-06-30T00:23:18.321Z,0
2017-06-30T00:24:19.042Z,0
2017-06-30T00:25:20.016Z,0
2017-06-30T00:26:20.741Z,0
2017-06-30T00:27:21.464Z,0
2017-06-30T00:28:22.187Z,0
2017-06-30T00:29:22.914Z,0
2017-06-30T00:30:23.890Z,0
2017-06-30T00:31:24.638Z,0
2017-06-30T00:32:25.360Z,0
2017-06-30T00:33:26.087Z,0
2017-06-30T00:34:26.810Z,0
2017-06-30T00:35:27.786Z,0
2017-06-30T00:36:28.509Z,0
2017-06-30T00:37:29.234Z,0
2017-06-30T00:38:29.957Z,0
2017-06-30T00:39:30.682Z,0
2017-06-30T00:40:31.654Z,0
2017-06-30T00:41:32.376Z,0
2017-06-30T00:42:33.099Z,0
2017-06-30T00:43:33.820Z,0
2017-06-30T00:44:34.547Z,0
2017-06-30T00:45:35.521Z,0
2017-06-30T00:46:36.243Z,0
2017-06-30T00:47:36.968Z,0
2017-06-30T00:48:37.690Z,0
2017-06-30T00:49:38.419Z,0
2017-06-30T00:50:39.391Z,0
2017-06-30T00:51:40.110Z,0
2017-06-30T00:52:40.835Z,0
2017-06-30T00:53:41.562Z,0
2017-06-30T00:54:42.286Z,0
2017-06-30T00:55:43.258Z,0
2017-06-30T00:56:43.983Z,0
2017-06-30T00:57:44.703Z,0
2017-06-30T00:58:45.425Z,0
2017-06-30T00:59:46.150Z,0
2017-06-30T01:00:47.125Z,0
2017-06-30T01:01:47.871Z,0
2017-06-30T01:02:48.594Z,0
2017-06-30T01:03:49.316Z,0
2017-06-30T01:04:50.042Z,0
2017-06-30T01:05:51.014Z,0
2017-06-30T01:06:51.737Z,0
2017-06-30T01:07:52.461Z,0
2017-06-30T01:08:53.223Z,0
2017-06-30T01:09:53.910Z,0
2017-06-30T01:10:54.884Z,0
2017-06-30T01:11:55.615Z,0
2017-06-30T01:12:56.334Z,0
2017-06-30T01:13:57.057Z,0
2017-06-30T01:14:57.777Z,0
2017-06-30T01:15:58.752Z,0
2017-06-30T01:16:59.479Z,0
2017-06-30T01:18:00.224Z,0
2017-06-30T01:19:00.947Z,0
2017-06-30T01:20:01.667Z,0
2017-06-30T01:21:02.645Z,0
2017-06-30T01:22:03.366Z,0
2017-06-30T01:23:04.087Z,0
2017-06-30T01:24:04.815Z,0
2017-06-30T01:25:05.535Z,0
2017-06-30T01:26:06.506Z,0
2017-06-30T01:27:07.228Z,0
2017-06-30T01:28:07.952Z,0
2017-06-30T01:29:08.679Z,0
2017-06-30T01:30:09.399Z,0
2017-06-30T01:31:10.374Z,0
2017-06-30T01:32:11.097Z,0
2017-06-30T01:33:11.819Z,0
2017-06-30T01:34:12.544Z,0
2017-06-30T01:35:13.267Z,0
2017-06-30T01:36:14.263Z,0
2017-06-30T01:37:14.988Z,0
2017-06-30T01:38:15.711Z,0
2017-06-30T01:39:16.438Z,0
2017-06-30T01:41:18.038Z,0
2017-06-30T01:42:18.762Z,0
2017-06-30T01:43:19.486Z,0
2017-06-30T01:44:20.206Z,0
2017-06-30T01:45:20.930Z,0
2017-06-30T01:46:21.903Z,0
2017-06-30T01:47:22.624Z,0
2017-06-30T01:48:23.350Z,0
2017-06-30T01:49:24.093Z,0
2017-06-30T01:50:24.816Z,0
2017-06-30T01:51:25.789Z,0
2017-06-30T01:52:26.516Z,0
2017-06-30T01:53:27.236Z,0
2017-06-30T01:54:27.959Z,0
2017-06-30T01:55:28.679Z,0
2017-06-30T01:56:29.653Z,0
2017-06-30T01:57:30.377Z,0
2017-06-30T01:58:31.095Z,0
2017-06-30T01:59:31.820Z,0
2017-06-30T02:00:32.545Z,0
2017-06-30T02:01:33.517Z,0
2017-06-30T02:02:34.264Z,0
2017-06-30T02:03:34.986Z,0
2017-06-30T02:04:35.707Z,0
2017-06-30T02:05:36.430Z,0
2017-06-30T02:06:37.403Z,0
2017-06-30T02:07:38.125Z,0
2017-06-30T02:08:38.851Z,0
2017-06-30T02:09:39.573Z,0
2017-06-30T02:10:40.294Z,0
2017-06-30T02:11:41.267Z,0
2017-06-30T02:12:41.992Z,0
2017-06-30T02:13:42.722Z,0
2017-06-30T02:14:43.438Z,0
2017-06-30T02:15:44.163Z,0
2017-06-30T03:05:15.266Z,0
2017-06-30T03:06:15.988Z,0
2017-06-30T03:07:16.714Z,0
2017-06-30T03:08:17.440Z,0
2017-06-30T03:09:18.165Z,0
2017-06-30T03:10:19.139Z,0
2017-06-30T03:11:19.867Z,0
2017-06-30T03:12:20.593Z,0
2017-06-30T03:13:21.319Z,0
2017-06-30T03:14:22.044Z,0
2017-06-30T03:15:23.020Z,0
2017-06-30T03:16:23.745Z,0
2017-06-30T03:17:24.472Z,0
2017-06-30T03:18:25.200Z,0
2017-06-30T03:19:25.928Z,0
2017-06-30T03:20:26.902Z,0
2017-06-30T03:21:27.656Z,0
2017-06-30T03:22:28.377Z,0
2017-06-30T03:23:29.103Z,0
2017-06-30T03:24:29.828Z,0
2017-06-30T03:25:30.810Z,5
2017-06-30T03:26:31.534Z,5
2017-06-30T03:27:32.260Z,5
2017-06-30T03:28:32.991Z,5
2017-06-30T03:29:33.714Z,5
2017-06-30T03:30:34.692Z,5
2017-06-30T03:31:35.422Z,5
2017-06-30T03:32:36.147Z,5
2017-06-30T03:33:36.872Z,5
2017-06-30T03:34:37.629Z,10
2017-06-30T03:35:38.604Z,10
2017-06-30T03:36:39.332Z,10
2017-06-30T03:37:40.064Z,10
2017-06-30T03:38:40.788Z,10
2017-06-30T03:39:41.516Z,10
2017-06-30T03:40:42.499Z,10
2017-06-30T03:41:43.246Z,10
2017-06-30T03:42:43.978Z,10
2017-06-30T03:43:44.701Z,10
2017-06-30T03:44:45.432Z,10
2017-06-30T03:45:46.412Z,10
2017-06-30T03:46:47.138Z,10
2017-06-30T03:47:47.869Z,10
2017-06-30T03:48:48.597Z,10
2017-06-30T03:49:49.325Z,10
2017-06-30T03:50:50.303Z,10
2017-06-30T03:51:51.028Z,10
2017-06-30T03:52:51.756Z,10
2017-06-30T03:53:52.481Z,15
2017-06-30T03:54:53.215Z,15
2017-06-30T03:55:54.187Z,15
2017-06-30T03:56:54.914Z,20
2017-06-30T03:57:55.645Z,20
2017-06-30T03:58:56.372Z,20
2017-06-30T03:59:57.100Z,20
2017-06-30T04:00:58.083Z,25
2017-06-30T04:01:58.811Z,25
2017-06-30T04:02:59.539Z,25
2017-06-30T04:04:00.269Z,25
2017-06-30T04:05:00.995Z,25
2017-06-30T04:06:01.975Z,30
2017-06-30T04:07:02.700Z,30
2017-06-30T04:08:03.428Z,30
2017-06-30T04:09:04.154Z,30
2017-06-30T04:10:04.881Z,30
2017-06-30T04:11:05.857Z,30
2017-06-30T04:12:06.586Z,35
2017-06-30T04:13:07.324Z,35
2017-06-30T04:14:08.046Z,35
2017-06-30T04:15:08.774Z,35
2017-06-30T04:16:09.750Z,35
2017-06-30T04:17:10.481Z,35
2017-06-30T04:18:11.209Z,35
2017-06-30T04:19:11.935Z,40
2017-06-30T04:20:12.664Z,40
2017-06-30T04:21:13.642Z,45
2017-06-30T04:22:14.395Z,50
2017-06-30T04:23:15.125Z,50
2017-06-30T04:24:15.859Z,50
2017-06-30T04:25:16.587Z,50
2017-06-30T04:26:17.568Z,50
2017-06-30T04:27:18.294Z,50
2017-06-30T04:28:19.052Z,50
2017-06-30T04:29:19.782Z,50
2017-06-30T04:30:20.511Z,55
2017-06-30T04:31:21.493Z,60
2017-06-30T04:32:22.221Z,60
2017-06-30T04:33:22.947Z,60
2017-06-30T04:34:23.696Z,60
2017-06-30T04:35:24.428Z,60
2017-06-30T04:36:25.409Z,55
2017-06-30T04:37:26.135Z,55
2017-06-30T04:38:26.870Z,55
2017-06-30T04:39:27.598Z,55
2017-06-30T04:40:28.329Z,55
2017-06-30T04:41:29.309Z,55
2017-06-30T04:42:30.041Z,55
2017-06-30T04:43:30.769Z,55
2017-06-30T04:44:31.496Z,55
2017-06-30T04:45:32.227Z,55
2017-06-30T04:46:33.208Z,55
2017-06-30T04:47:33.939Z,60
2017-06-30T04:48:34.670Z,65
2017-06-30T04:49:35.400Z,65
2017-06-30T04:50:36.133Z,75
2017-06-30T04:51:37.108Z,80
2017-06-30T04:52:37.841Z,85
2017-06-30T04:53:38.571Z,90
2017-06-30T04:54:39.297Z,95
2017-06-30T04:55:40.028Z,95
2017-06-30T04:56:41.009Z,95
2017-06-30T04:57:41.736Z,95
2017-06-30T04:58:42.465Z,90
2017-06-30T04:59:43.196Z,90
2017-06-30T05:00:43.925Z,95
2017-06-30T05:01:44.902Z,95
2017-06-30T05:02:45.635Z,100
2017-06-30T05:03:46.368Z,100
2017-06-30T05:04:47.128Z,105
2017-06-30T05:05:47.860Z,105
2017-06-30T05:06:48.839Z,105
2017-06-30T05:07:49.572Z,110
2017-06-30T05:08:50.305Z,115
2017-06-30T05:09:51.060Z,115
2017-06-30T05:10:51.789Z,120
2017-06-30T05:11:52.768Z,125
2017-06-30T05:12:53.508Z,125
2017-06-30T05:13:54.234Z,130
2017-06-30T05:14:54.959Z,130
2017-06-30T05:15:55.687Z,135
2017-06-30T05:16:56.693Z,135
2017-06-30T05:17:57.424Z,140
2017-06-30T05:18:58.152Z,140
2017-06-30T05:19:58.887Z,140
2017-06-30T05:20:59.621Z,140
2017-06-30T05:22:00.603Z,140
2017-06-30T05:23:01.331Z,145
2017-06-30T05:24:02.064Z,145
2017-06-30T05:25:02.798Z,145
2017-06-30T05:26:03.529Z,145
2017-06-30T05:27:04.536Z,150
2017-06-30T05:28:05.265Z,150
2017-06-30T05:29:06.000Z,150
2017-06-30T05:30:06.735Z,155
2017-06-30T05:31:07.461Z,155
2017-06-30T05:32:08.445Z,155
2017-06-30T05:33:09.173Z,155
2017-06-30T05:34:09.908Z,155
2017-06-30T05:35:10.640Z,160
2017-06-30T05:36:11.371Z,160
2017-06-30T05:37:12.399Z,160
2017-06-30T05:38:13.131Z,165
2017-06-30T05:39:13.865Z,170
2017-06-30T05:40:14.597Z,175
2017-06-30T05:41:15.327Z,180
2017-06-30T05:42:16.308Z,185
2017-06-30T05:43:17.040Z,185
2017-06-30T05:44:17.771Z,190
2017-06-30T05:45:18.504Z,190
2017-06-30T05:46:19.232Z,195
2017-06-30T05:47:20.210Z,195
2017-06-30T05:48:20.945Z,200
2017-06-30T05:49:21.698Z,200
2017-06-30T05:50:22.429Z,200
2017-06-30T05:51:23.158Z,205
2017-06-30T05:52:24.139Z,205
2017-06-30T05:53:24.893Z,205
2017-06-30T05:54:25.623Z,210
2017-06-30T05:55:26.355Z,210
2017-06-30T05:56:27.088Z,210
2017-06-30T05:57:28.116Z,210
2017-06-30T05:58:28.847Z,210
2017-06-30T05:59:29.608Z,210
2017-06-30T06:00:30.340Z,210
2017-06-30T06:01:31.068Z,215
2017-06-30T06:02:32.096Z,215
2017-06-30T06:03:32.827Z,215
2017-06-30T06:04:33.583Z,215
2017-06-30T06:05:34.315Z,220
2017-06-30T06:06:35.045Z,220
2017-06-30T06:07:36.046Z,215
2017-06-30T06:08:36.779Z,220
2017-06-30T06:09:37.511Z,215
2017-06-30T06:10:38.242Z,215
2017-06-30T06:11:38.968Z,220
2017-06-30T06:12:40.000Z,220
2017-06-30T06:13:40.729Z,220
2017-06-30T06:14:41.459Z,225
2017-06-30T06:15:42.216Z,220
2017-06-30T06:16:42.943Z,220
2017-06-30T06:17:43.921Z,220
2017-06-30T06:18:44.654Z,215
2017-06-30T06:19:45.381Z,215
2017-06-30T06:20:46.110Z,215
2017-06-30T06:21:46.844Z,220
2017-06-30T06:22:47.819Z,220
2017-06-30T06:23:48.547Z,220
2017-06-30T06:24:49.273Z,220
2017-06-30T06:25:50.006Z,220
2017-06-30T06:26:50.736Z,225
2017-06-30T06:27:51.714Z,225
2017-06-30T06:28:52.439Z,230
2017-06-30T06:29:53.171Z,235
2017-06-30T06:30:53.898Z,240
2017-06-30T06:31:54.629Z,250
2017-06-30T06:32:55.609Z,255
2017-06-30T06:33:56.339Z,265
2017-06-30T06:34:57.067Z,265
2017-06-30T06:35:57.795Z,270
2017-06-30T06:36:58.525Z,275
2017-06-30T06:37:59.559Z,280
2017-06-30T06:39:00.289Z,285
2017-06-30T06:40:01.021Z,300
2017-06-30T06:41:01.747Z,305
2017-06-30T06:42:02.478Z,305
2017-06-30T06:43:03.462Z,310
2017-06-30T06:44:04.187Z,310
2017-06-30T06:45:04.921Z,315
2017-06-30T06:46:05.648Z,315
2017-06-30T06:47:06.377Z,310
2017-06-30T06:48:07.356Z,310
2017-06-30T06:49:08.087Z,300
2017-06-30T06:50:08.819Z,310
2017-06-30T06:51:09.576Z,310
2017-06-30T06:52:10.307Z,315
2017-06-30T06:53:11.288Z,315
2017-06-30T06:54:12.019Z,320
2017-06-30T06:55:12.749Z,320
2017-06-30T06:56:13.484Z,320
2017-06-30T06:57:14.218Z,320
2017-06-30T06:58:15.199Z,320
2017-06-30T06:59:15.932Z,315
2017-06-30T07:00:16.665Z,310
2017-06-30T07:01:17.395Z,295
2017-06-30T07:02:18.124Z,285
2017-06-30T07:03:19.105Z,285
2017-06-30T07:04:19.837Z,270
2017-06-30T07:05:20.568Z,275
2017-06-30T07:06:21.297Z,265
2017-06-30T07:07:22.027Z,250
2017-06-30T07:08:23.010Z,245
2017-06-30T07:09:23.735Z,245
2017-06-30T07:10:24.469Z,245
2017-06-30T07:11:25.203Z,245
2017-06-30T07:12:25.962Z,240
2017-06-30T07:13:26.944Z,230
2017-06-30T07:14:27.673Z,230
2017-06-30T07:15:28.402Z,245
2017-06-30T07:16:29.127Z,250
2017-06-30T07:17:29.885Z,250
2017-06-30T07:18:30.893Z,240
2017-06-30T07:19:31.619Z,235
2017-06-30T07:20:32.352Z,215
2017-06-30T07:21:33.080Z,220
2017-06-30T07:22:33.813Z,215
2017-06-30T07:23:34.791Z,210
2017-06-30T07:24:35.521Z,215
2017-06-30T07:25:36.249Z,215
2017-06-30T07:26:36.979Z,220
2017-06-30T07:27:37.710Z,225
2017-06-30T07:28:38.689Z,220
2017-06-30T07:29:39.415Z,215
2017-06-30T07:30:40.148Z,205
2017-06-30T07:31:40.874Z,190
2017-06-30T07:32:41.630Z,180
2017-06-30T07:33:42.633Z,175
2017-06-30T07:34:43.365Z,170
2017-06-30T07:35:44.094Z,170
2017-06-30T07:36:44.824Z,165
2017-06-30T07:37:45.552Z,160
2017-06-30T07:38:46.531Z,155
2017-06-30T07:39:47.258Z,140
2017-06-30T07:40:47.991Z,130
2017-06-30T07:41:48.716Z,125
2017-06-30T07:42:49.447Z,115
2017-06-30T07:43:50.174Z,115
2017-06-30T07:44:50.904Z,110
2017-06-30T07:45:51.631Z,110
2017-06-30T07:46:52.359Z,110
2017-06-30T07:47:53.089Z,115
2017-06-30T07:48:53.813Z,120
2017-06-30T07:49:54.544Z,130
2017-06-30T07:50:55.269Z,140
2017-06-30T07:51:55.999Z,145
2017-06-30T07:52:56.732Z,150
2017-06-30T07:53:57.484Z,155
2017-06-30T07:54:58.212Z,165
2017-06-30T07:55:58.940Z,170
2017-06-30T07:56:59.667Z,175
2017-06-30T07:58:00.394Z,180
2017-06-30T07:59:01.119Z,175
2017-06-30T08:00:01.849Z,180
2017-06-30T08:01:02.579Z,175
2017-06-30T08:02:03.309Z,170
2017-06-30T08:03:04.031Z,165
2017-06-30T08:04:04.815Z,160
2017-06-30T08:05:05.577Z,155
2017-06-30T08:06:06.303Z,155
2017-06-30T08:07:07.032Z,155
2017-06-30T08:08:07.761Z,160
2017-06-30T08:09:08.593Z,175
2017-06-30T08:10:09.340Z,185
2017-06-30T08:11:10.072Z,190
2017-06-30T08:12:10.804Z,205
2017-06-30T08:13:11.532Z,220
2017-06-30T08:14:12.336Z,235
2017-06-30T08:15:13.068Z,250
2017-06-30T08:16:13.825Z,265
2017-06-30T08:17:14.552Z,280
2017-06-30T08:18:15.283Z,290
2017-06-30T08:19:16.064Z,300
2017-06-30T08:20:16.790Z,305
2017-06-30T08:21:17.522Z,315
2017-06-30T08:22:18.254Z,325
2017-06-30T08:23:18.983Z,335
2017-06-30T08:24:19.865Z,335
2017-06-30T08:25:20.592Z,340
2017-06-30T08:26:21.323Z,330
2017-06-30T08:27:22.057Z,320
2017-06-30T08:28:22.785Z,305
2017-06-30T08:29:23.565Z,310
2017-06-30T08:30:24.298Z,320
2017-06-30T08:31:25.032Z,335
2017-06-30T08:32:25.761Z,360
2017-06-30T08:33:26.495Z,380
2017-06-30T08:34:27.326Z,385
2017-06-30T08:35:28.053Z,400
2017-06-30T08:36:28.788Z,425
2017-06-30T08:37:29.520Z,435
2017-06-30T08:38:30.249Z,460
2017-06-30T08:39:31.131Z,470
2017-06-30T08:40:31.864Z,495
2017-06-30T08:41:32.595Z,510
2017-06-30T08:42:33.325Z,530
2017-06-30T08:43:34.061Z,535
2017-06-30T08:44:34.866Z,555
2017-06-30T08:45:35.602Z,555
2017-06-30T08:46:36.330Z,525
2017-06-30T08:47:37.064Z,510
2017-06-30T08:48:37.797Z,520
2017-06-30T08:49:38.580Z,515
2017-06-30T08:50:39.313Z,520
2017-06-30T08:51:40.047Z,520
2017-06-30T08:52:40.780Z,545
2017-06-30T08:53:41.515Z,560
2017-06-30T08:54:42.348Z,595
2017-06-30T08:55:43.081Z,740
2017-06-30T08:56:43.817Z,745
2017-06-30T08:57:44.550Z,840
2017-06-30T08:58:45.283Z,900
2017-06-30T08:59:46.115Z,630
2017-06-30T09:00:46.853Z,800
2017-06-30T09:01:47.588Z,825
2017-06-30T09:02:48.323Z,705
2017-06-30T09:03:49.058Z,660
2017-06-30T09:04:49.869Z,705
2017-06-30T09:05:50.601Z,745
2017-06-30T09:06:51.337Z,675
2017-06-30T09:07:52.070Z,625
2017-06-30T09:08:52.806Z,985
2017-06-30T09:09:53.639Z,945
2017-06-30T09:10:54.373Z,570
2017-06-30T09:11:55.110Z,645
2017-06-30T09:12:55.849Z,565
2017-06-30T09:13:56.583Z,515
2017-06-30T09:14:57.417Z,465
2017-06-30T09:15:58.154Z,570
2017-06-30T09:16:58.907Z,520
2017-06-30T09:17:59.645Z,780
2017-06-30T09:19:00.378Z,465
2017-06-30T09:20:01.362Z,430
2017-06-30T09:21:02.095Z,455
2017-06-30T09:22:02.829Z,530
2017-06-30T09:23:03.566Z,505
2017-06-30T09:24:04.297Z,600
2017-06-30T09:25:05.136Z,600
2017-06-30T09:26:05.871Z,645
2017-06-30T09:27:06.608Z,785
2017-06-30T09:28:07.343Z,710
2017-06-30T09:29:08.077Z,895
2017-06-30T09:30:08.969Z,870
2017-06-30T09:31:09.699Z,880
2017-06-30T09:32:10.432Z,865
2017-06-30T09:33:11.176Z,540
2017-06-30T09:34:11.908Z,585
2017-06-30T09:35:12.691Z,485
2017-06-30T09:36:13.427Z,655
2017-06-30T09:37:14.166Z,590
2017-06-30T09:38:14.898Z,530
2017-06-30T09:39:15.633Z,690
2017-06-30T09:40:16.471Z,485
2017-06-30T09:41:17.205Z,490
2017-06-30T09:42:17.939Z,675
2017-06-30T09:43:18.676Z,545
2017-06-30T09:44:19.407Z,820
2017-06-30T09:45:20.291Z,750
2017-06-30T09:46:21.030Z,570
2017-06-30T09:47:21.767Z,520
2017-06-30T09:48:22.500Z,595
2017-06-30T09:49:23.235Z,595
2017-06-30T09:50:24.073Z,560
2017-06-30T09:51:24.804Z,785
2017-06-30T09:52:25.545Z,865
2017-06-30T09:53:26.279Z,970
2017-06-30T09:54:27.016Z,960
2017-06-30T09:55:27.852Z,805
2017-06-30T09:56:28.587Z,690
2017-06-30T09:57:29.323Z,1100
2017-06-30T09:58:30.060Z,1165
2017-06-30T09:59:30.820Z,925
2017-06-30T10:00:31.582Z,1120
2017-06-30T10:01:32.324Z,1045
2017-06-30T10:02:33.062Z,500
2017-06-30T10:03:33.800Z,450
2017-06-30T10:04:34.535Z,565
2017-06-30T10:05:35.424Z,1095
2017-06-30T10:06:36.161Z,1215
2017-06-30T10:07:36.897Z,1260
2017-06-30T10:08:37.635Z,835
2017-06-30T10:09:38.373Z,1125
2017-06-30T10:10:39.216Z,865
2017-06-30T10:11:39.956Z,1215
2017-06-30T10:12:40.694Z,980
2017-06-30T10:13:41.441Z,1170
2017-06-30T10:14:42.186Z,1055
2017-06-30T10:15:43.002Z,720
2017-06-30T10:16:43.748Z,1270
2017-06-30T10:17:44.490Z,800
2017-06-30T10:18:45.228Z,795
2017-06-30T10:19:45.969Z,1220
2017-06-30T10:20:46.815Z,600
2017-06-30T10:21:47.562Z,450
2017-06-30T10:22:48.292Z,525
2017-06-30T10:23:49.032Z,635
2017-06-30T10:24:49.772Z,545
2017-06-30T10:25:50.609Z,1025
2017-06-30T10:26:51.353Z,1010
2017-06-30T10:27:52.089Z,1210
2017-06-30T10:28:52.828Z,1185
2017-06-30T10:29:53.571Z,1170
2017-06-30T10:30:54.511Z,1130
2017-06-30T10:31:55.254Z,1155
2017-06-30T10:32:55.993Z,945
2017-06-30T10:33:56.735Z,850
2017-06-30T10:34:57.471Z,945
2017-06-30T10:35:58.359Z,570
2017-06-30T10:36:59.093Z,565
2017-06-30T10:37:59.833Z,540
2017-06-30T10:39:00.569Z,575
2017-06-30T10:40:01.305Z,885
2017-06-30T10:41:02.147Z,805
2017-06-30T10:42:02.910Z,1055
2017-06-30T10:43:03.649Z,1075
2017-06-30T10:44:04.385Z,925
2017-06-30T10:45:05.124Z,815
2017-06-30T10:46:05.963Z,455
2017-06-30T10:47:06.703Z,300
2017-06-30T10:48:07.439Z,210
2017-06-30T10:49:08.180Z,170
2017-06-30T10:50:08.913Z,170
2017-06-30T10:51:09.746Z,175
2017-06-30T10:52:10.476Z,185
2017-06-30T10:53:11.211Z,195
2017-06-30T10:54:11.947Z,215
2017-06-30T10:55:12.683Z,230
2017-06-30T10:56:13.561Z,265
2017-06-30T10:57:14.297Z,300
2017-06-30T10:58:15.030Z,325
2017-06-30T10:59:15.762Z,345
2017-06-30T11:00:16.497Z,360
2017-06-30T11:01:17.281Z,360
2017-06-30T11:02:18.018Z,370
2017-06-30T11:03:18.757Z,370
2017-06-30T11:04:19.487Z,360
2017-06-30T11:05:20.219Z,315
2017-06-30T11:06:21.153Z,290
2017-06-30T11:07:21.886Z,280
2017-06-30T11:08:22.617Z,290
2017-06-30T11:09:23.348Z,310
2017-06-30T11:10:24.083Z,335
2017-06-30T11:11:24.866Z,375
2017-06-30T11:12:25.600Z,415
2017-06-30T11:13:26.331Z,460
2017-06-30T11:14:27.066Z,510
2017-06-30T11:15:27.804Z,980
2017-06-30T11:16:28.636Z,1080
2017-06-30T11:17:29.373Z,1025
2017-06-30T11:18:30.135Z,845
2017-06-30T11:19:30.893Z,655
2017-06-30T11:20:31.627Z,650
2017-06-30T11:21:32.410Z,730
2017-06-30T11:22:33.147Z,1225
2017-06-30T11:23:33.908Z,765
2017-06-30T11:24:34.643Z,835
2017-06-30T11:25:35.376Z,1330
2017-06-30T11:26:36.163Z,1450
2017-06-30T11:27:36.899Z,1340
2017-06-30T11:28:37.640Z,1345
2017-06-30T11:29:38.374Z,1410
2017-06-30T11:30:39.116Z,1445
2017-06-30T11:31:39.935Z,1390
2017-06-30T11:32:40.679Z,1365
2017-06-30T11:33:41.419Z,1385
2017-06-30T11:34:42.156Z,1285
2017-06-30T11:35:42.909Z,1335
2017-06-30T11:36:43.675Z,1475
2017-06-30T11:37:44.416Z,620
2017-06-30T11:38:45.160Z,710
2017-06-30T11:39:45.901Z,1190
2017-06-30T11:40:46.647Z,1300
2017-06-30T11:41:47.540Z,1260
2017-06-30T11:42:48.282Z,1235
2017-06-30T11:43:49.019Z,1340
2017-06-30T11:44:49.761Z,800
2017-06-30T11:45:50.504Z,1180
2017-06-30T11:46:51.347Z,1215
2017-06-30T11:47:52.093Z,1185
2017-06-30T11:48:52.834Z,600
2017-06-30T11:49:53.576Z,595
2017-06-30T11:50:54.342Z,635
2017-06-30T11:51:55.081Z,610
2017-06-30T11:52:55.820Z,655
2017-06-30T11:53:56.561Z,950
2017-06-30T11:54:57.300Z,1070
2017-06-30T11:55:58.046Z,1415
2017-06-30T11:56:58.838Z,1420
2017-06-30T11:57:59.579Z,1190
2017-06-30T11:59:00.326Z,1440
2017-06-30T12:00:01.066Z,1490
2017-06-30T12:01:01.804Z,800
2017-06-30T12:02:02.601Z,1510
2017-06-30T12:03:03.340Z,1310
2017-06-30T12:04:04.083Z,1310
2017-06-30T12:05:04.846Z,1240
2017-06-30T12:06:05.583Z,1170
2017-06-30T12:07:06.322Z,1220
2017-06-30T12:08:07.060Z,1040
2017-06-30T12:09:07.821Z,1515
2017-06-30T12:10:08.564Z,1415
2017-06-30T12:11:09.307Z,1155
2017-06-30T12:12:10.149Z,1475
2017-06-30T12:13:10.886Z,1495
2017-06-30T12:14:11.630Z,1570
2017-06-30T12:15:12.371Z,1650
2017-06-30T12:16:13.107Z,1500
2017-06-30T12:17:13.950Z,1600
2017-06-30T12:18:14.715Z,1830
2017-06-30T12:19:15.459Z,1835
2017-06-30T12:20:16.197Z,1755
2017-06-30T12:21:16.938Z,1780
2017-06-30T12:22:17.676Z,830
2017-06-30T12:23:18.417Z,865
2017-06-30T12:24:19.157Z,935
2017-06-30T12:25:19.895Z,755
2017-06-30T12:26:20.639Z,735
2017-06-30T12:27:21.404Z,520
2017-06-30T12:28:22.142Z,455
2017-06-30T12:29:22.879Z,420
2017-06-30T12:30:23.617Z,395
2017-06-30T12:31:24.358Z,400
2017-06-30T12:32:25.197Z,405
2017-06-30T12:33:25.936Z,415
2017-06-30T12:34:26.673Z,415
2017-06-30T12:35:27.422Z,410
2017-06-30T12:36:28.181Z,425
2017-06-30T12:37:28.925Z,450
2017-06-30T12:38:29.661Z,500
2017-06-30T12:39:30.404Z,535
2017-06-30T12:40:31.172Z,635
2017-06-30T12:41:31.908Z,610
2017-06-30T12:42:32.673Z,590
2017-06-30T12:43:33.412Z,580
2017-06-30T12:44:34.151Z,575
2017-06-30T12:45:34.887Z,605
2017-06-30T12:46:35.632Z,900
2017-06-30T12:47:36.474Z,930
2017-06-30T12:48:37.239Z,845
2017-06-30T12:49:37.978Z,890
2017-06-30T12:50:38.719Z,850
2017-06-30T12:51:39.459Z,770
2017-06-30T12:52:40.196Z,605
2017-06-30T12:53:40.963Z,390
2017-06-30T12:54:41.702Z,310
2017-06-30T12:55:42.439Z,280
2017-06-30T12:56:43.203Z,255
2017-06-30T12:57:44.018Z,230
2017-06-30T12:58:44.758Z,200
2017-06-30T12:59:45.517Z,165
2017-06-30T13:00:46.256Z,125
2017-06-30T13:01:46.991Z,100
2017-06-30T13:02:47.826Z,85
2017-06-30T13:03:48.557Z,85
2017-06-30T13:04:49.288Z,90
2017-06-30T13:05:50.023Z,95
2017-06-30T13:06:50.756Z,100
2017-06-30T13:07:51.633Z,110
2017-06-30T13:08:52.367Z,115
2017-06-30T13:09:53.099Z,115
2017-06-30T13:10:53.834Z,120
2017-06-30T13:11:54.564Z,130
2017-06-30T13:12:55.448Z,145
2017-06-30T13:13:56.179Z,155
2017-06-30T13:14:56.908Z,165
2017-06-30T13:15:57.642Z,180
2017-06-30T13:16:58.376Z,205
2017-06-30T13:17:59.256Z,220
2017-06-30T13:18:59.990Z,240
2017-06-30T13:20:00.723Z,255
2017-06-30T13:21:01.453Z,270
2017-06-30T13:22:02.182Z,285
2017-06-30T13:23:03.013Z,300
2017-06-30T13:24:03.746Z,315
2017-06-30T13:25:04.479Z,315
2017-06-30T13:26:05.208Z,315
2017-06-30T13:27:05.944Z,320
2017-06-30T13:28:06.774Z,290
2017-06-30T13:29:07.506Z,265
2017-06-30T13:30:08.260Z,275
2017-06-30T13:31:08.997Z,285
2017-06-30T13:32:09.727Z,310
2017-06-30T13:33:10.562Z,390
2017-06-30T13:34:11.290Z,435
2017-06-30T13:35:12.025Z,370
2017-06-30T13:36:12.758Z,300
2017-06-30T13:37:13.487Z,260
2017-06-30T13:38:14.320Z,280
2017-06-30T13:39:15.051Z,445
2017-06-30T13:40:15.787Z,630
2017-06-30T13:41:16.518Z,675
2017-06-30T13:42:17.254Z,680
2017-06-30T13:43:18.083Z,690
2017-06-30T13:44:18.816Z,705
2017-06-30T13:45:19.549Z,710
2017-06-30T13:46:20.285Z,575
2017-06-30T13:47:21.020Z,450
2017-06-30T13:48:21.854Z,380
2017-06-30T13:49:22.592Z,330
2017-06-30T13:50:23.321Z,295
2017-06-30T13:51:24.080Z,305
2017-06-30T13:52:24.786Z,300
2017-06-30T13:53:25.568Z,375
2017-06-30T13:54:26.304Z,400
2017-06-30T13:55:27.042Z,470
2017-06-30T13:56:27.772Z,405
2017-06-30T13:57:28.504Z,420
2017-06-30T13:58:29.287Z,430
2017-06-30T13:59:30.024Z,440
2017-06-30T14:00:30.759Z,395
2017-06-30T14:01:31.490Z,420
2017-06-30T14:02:32.226Z,670
2017-06-30T14:03:33.015Z,455
2017-06-30T14:04:33.748Z,595
2017-06-30T14:05:34.483Z,305
2017-06-30T14:06:35.218Z,635
2017-06-30T14:07:35.957Z,625
2017-06-30T14:08:36.794Z,710
2017-06-30T14:09:37.534Z,295
2017-06-30T14:10:38.264Z,255
2017-06-30T14:11:39.002Z,235
2017-06-30T14:12:39.741Z,235
2017-06-30T14:13:40.517Z,215
2017-06-30T14:14:41.274Z,205
2017-06-30T14:15:42.010Z,200
2017-06-30T14:16:42.744Z,190
2017-06-30T14:17:43.503Z,190
2017-06-30T14:18:44.288Z,195
2017-06-30T14:19:45.016Z,200
2017-06-30T14:20:45.751Z,210
2017-06-30T14:21:46.486Z,235
2017-06-30T14:22:47.221Z,255
2017-06-30T14:23:48.095Z,280
2017-06-30T14:24:48.833Z,285
2017-06-30T14:25:49.563Z,320
2017-06-30T14:26:50.292Z,355
2017-06-30T14:27:51.050Z,390
2017-06-30T14:28:51.934Z,460
2017-06-30T14:29:52.666Z,570
2017-06-30T14:30:53.398Z,600
2017-06-30T14:31:54.130Z,525
2017-06-30T14:32:54.865Z,540
2017-06-30T14:33:55.699Z,575
2017-06-30T14:34:56.433Z,625
2017-06-30T14:35:57.166Z,660
2017-06-30T14:36:57.905Z,770
2017-06-30T14:37:58.635Z,905
2017-06-30T14:38:59.473Z,1075
2017-06-30T14:40:00.207Z,1260
2017-06-30T14:41:00.944Z,695
2017-06-30T14:42:01.677Z,520
2017-06-30T14:43:02.412Z,500
2017-06-30T14:44:03.406Z,520
2017-06-30T14:45:04.142Z,925
2017-06-30T14:46:04.883Z,795
2017-06-30T14:47:05.619Z,720
2017-06-30T14:48:06.383Z,655
2017-06-30T14:49:07.219Z,665
2017-06-30T14:50:07.958Z,820
2017-06-30T14:51:08.699Z,755
2017-06-30T14:52:09.442Z,660
2017-06-30T14:53:10.202Z,605
2017-06-30T14:54:10.989Z,560
2017-06-30T14:55:11.731Z,785
2017-06-30T14:56:12.469Z,770
2017-06-30T14:57:13.207Z,770